Time;durP1;ratioP1;P1;durP2;ratioP2;P2;SDS_P1;SDS_P2;PMS_P1;PMS_P2;Temp;Humidity;BMP_temperature;BMP_pressure;BME280_temperature;BME280_humidity;BME280_pressure;Samples;Min_cycle;Max_cycle;Signal;HPM_P1;HPM_P2
2022/10/29 00:01:26;;;;;;;23.08;5.80;;;;;;;;;;6218715;23;20023;-71
2022/10/29 00:03:52;;;;;;;20.52;5.78;;;;;;;;;;6193628;23;20477;-71
2022/10/29 00:06:18;;;;;;;23.88;5.50;;;;;;;;;;6247708;23;20058;-71
2022/10/29 00:08:45;;;;;;;25.92;6.38;;;;;;;;;;6220795;23;20044;-71
2022/10/29 00:11:20;;;;;;;20.73;5.50;;;;;;;;;;6220803;23;20015;-71
2022/10/29 00:13:46;;;;;;;22.77;6.10;;;;;;;;;;6220659;23;20070;-72
2022/10/29 00:16:17;;;;;;;26.67;6.75;;;;;;;;;;6220903;23;20015;-71
2022/10/29 00:18:43;;;;;;;26.05;5.72;;;;;;;;;;6220815;23;20046;-71
2022/10/29 00:21:13;;;;;;;30.15;5.95;;;;;;;;;;6220844;23;20407;-71
2022/10/29 00:23:40;;;;;;;27.58;6.00;;;;;;;;;;6220700;23;20043;-71
2022/10/29 00:26:06;;;;;;;21.70;6.57;;;;;;;;;;6220612;23;20462;-72
2022/10/29 00:28:32;;;;;;;26.73;7.10;;;;;;;;;;6247531;23;20037;-71
2022/10/29 00:31:02;;;;;;;28.35;7.18;;;;;;;;;;6220641;23;20334;-71
2022/10/29 00:33:28;;;;;;;22.13;6.72;;;;;;;;;;6220548;23;20012;-71
2022/10/29 00:35:55;;;;;;;28.17;6.80;;;;;;;;;;6220524;23;20043;-71
2022/10/29 00:38:21;;;;;;;20.52;7.30;;;;;;;;;;6220625;23;20008;-71
2022/10/29 00:40:47;;;;;;;19.50;7.07;;;;;;;;;;6195761;23;20449;-71
2022/10/29 00:43:14;;;;;;;32.22;6.70;;;;;;;;;;6220462;23;20058;-71
2022/10/29 00:45:42;;;;;;;28.33;6.40;;;;;;;;;;6220547;23;20012;-71
2022/10/29 00:48:08;;;;;;;20.20;6.00;;;;;;;;;;6220571;23;20015;-71
2022/10/29 00:50:34;;;;;;;24.92;6.82;;;;;;;;;;6220345;23;20012;-71
2022/10/29 00:53:01;;;;;;;18.20;6.60;;;;;;;;;;6220418;23;20016;-71
2022/10/29 00:55:27;;;;;;;25.15;6.40;;;;;;;;;;6220514;23;20019;-71
2022/10/29 00:57:54;;;;;;;29.17;6.00;;;;;;;;;;6220523;23;20027;-71
2022/10/29 01:00:21;;;;;;;29.15;6.50;;;;;;;;;;6219930;23;20008;-72
2022/10/29 01:02:47;;;;;;;15.18;6.57;;;;;;;;;;6220254;23;20012;-71
2022/10/29 01:05:15;;;;;;;18.33;6.30;;;;;;;;;;6220397;23;20012;-71
2022/10/29 01:07:41;;;;;;;25.20;6.30;;;;;;;;;;6220389;22;20500;-71
2022/10/29 01:10:07;;;;;;;14.80;6.45;;;;;;;;;;6220456;23;20042;-71
2022/10/29 01:12:33;;;;;;;9.90;5.80;;;;;;;;;;6220248;23;20012;-71
2022/10/29 01:15:13;;;;;;;26.10;6.63;;;;;;;;;;6220040;23;20024;-71
2022/10/29 01:18:04;;;;;;;13.48;6.28;;;;;;;;;;6219886;23;20012;-71
2022/10/29 01:20:48;;;;;;;34.85;5.57;;;;;;;;;;6220112;23;20027;-71
2022/10/29 01:23:29;;;;;;;43.50;5.55;;;;;;;;;;6220173;23;20008;-71
2022/10/29 01:25:58;;;;;;;28.92;5.18;;;;;;;;;;6219996;23;20019;-72
2022/10/29 01:28:30;;;;;;;20.30;5.30;;;;;;;;;;6220102;23;20016;-71
2022/10/29 01:31:28;;;;;;;16.83;4.60;;;13.40;99.90;;;;;;6219940;23;20020;-71
2022/10/29 01:33:54;;;;;;;72.68;4.95;;;;;;;;;;6219654;23;20020;-71
2022/10/29 01:36:23;;;;;;;36.75;5.15;;;;;;;;;;6219974;23;20352;-71
2022/10/29 01:39:07;;;;;;;44.40;5.43;;;;;;;;;;6219850;23;20083;-71
2022/10/29 01:41:39;;;;;;;8.88;5.18;;;;;;;;;;6220018;23;20039;-72
2022/10/29 01:44:11;;;;;;;7.30;5.18;;;;;;;;;;6220104;23;20457;-71
2022/10/29 01:46:42;;;;;;;8.73;4.40;;;;;;;;;;6246916;23;20012;-71
2022/10/29 01:49:11;;;;;;;20.25;5.07;;;;;;;;;;6219875;23;20085;-72
2022/10/29 01:51:38;;;;;;;13.95;4.78;;;;;;;;;;6219760;23;20016;-72
2022/10/29 01:54:09;;;;;;;5.75;4.25;;;;;;;;;;6219579;23;20450;-71
2022/10/29 01:56:35;;;;;;;7.03;4.85;;;;;;;;;;6220052;23;20066;-71
2022/10/29 01:59:02;;;;;;;10.40;4.47;;;;;;;;;;6219887;23;20047;-71
2022/10/29 02:01:46;;;;;;;12.52;4.35;;;;;;;;;;6219890;23;20338;-71
2022/10/29 02:04:18;;;;;;;10.45;4.45;;;;;;;;;;6219662;23;20012;-71
2022/10/29 02:06:59;;;;;;;5.75;4.68;;;;;;;;;;6219741;23;20008;-71
2022/10/29 02:09:44;;;;;;;8.48;4.28;;;;;;;;;;6219500;23;20450;-71
2022/10/29 02:12:21;;;;;;;18.70;5.05;;;;;;;;;;6219575;23;20087;-71
2022/10/29 02:14:53;;;;;;;28.13;5.25;;;;;;;;;;6244806;23;20020;-71
2022/10/29 02:17:19;;;;;;;7.25;5.00;;;;;;;;;;6219594;23;20111;-71
2022/10/29 02:19:45;;;;;;;12.38;4.85;;;;;;;;;;6219644;23;20016;-71
2022/10/29 02:22:11;;;;;;;57.25;5.57;;;;;;;;;;6219757;23;20379;-71
2022/10/29 02:24:37;;;;;;;31.85;5.00;;;;;;;;;;6219434;23;20452;-71
2022/10/29 02:27:03;;;;;;;32.17;4.60;;;;;;;;;;6219278;23;20026;-71
2022/10/29 02:29:29;;;;;;;13.20;4.40;;;;;;;;;;6219385;23;20400;-71
2022/10/29 02:31:55;;;;;;;14.45;4.78;;;;;;;;;;6219582;23;20070;-71
2022/10/29 02:34:21;;;;;;;36.42;5.45;;;;;;;;;;6219345;23;20023;-71
2022/10/29 02:36:47;;;;;;;10.20;4.50;;;;;;;;;;6219291;23;20462;-71
2022/10/29 02:39:13;;;;;;;18.92;4.50;;;;;;;;;;6219456;23;20038;-71
2022/10/29 02:41:39;;;;;;;20.50;5.07;;;;;;;;;;6219496;23;20043;-71
2022/10/29 02:44:05;;;;;;;15.70;4.70;;;;;;;;;;6219395;23;20016;-71
2022/10/29 02:46:34;;;;;;;18.98;4.43;;;;;;;;;;6219513;23;20016;-71
2022/10/29 02:49:01;;;;;;;12.13;4.85;;;;;;;;;;6219272;23;20015;-71
2022/10/29 02:51:27;;;;;;;8.15;4.85;;;;;;;;;;6219066;23;20528;-71
2022/10/29 02:53:53;;;;;;;39.97;5.30;;;;;;;;;;6219228;23;20027;-71
2022/10/29 02:56:19;;;;;;;95.22;5.70;;;;;;;;;;6219278;23;20015;-71
2022/10/29 02:58:45;;;;;;;7.13;4.65;;;;;;;;;;6219290;23;20044;-71
2022/10/29 03:01:13;;;;;;;47.85;5.25;;;;;;;;;;6219417;23;20016;-71
2022/10/29 03:03:39;;;;;;;43.50;5.35;;;;;;;;;;6219558;23;20048;-72
2022/10/29 03:06:11;;;;;;;7.85;4.18;;;;;;;;;;6219337;23;20023;-71
2022/10/29 03:08:37;;;;;;;10.88;4.60;;;;;;;;;;6219170;23;20042;-72
2022/10/29 03:11:03;;;;;;;7.90;5.43;;;;;;;;;;6219388;23;20019;-71
2022/10/29 03:13:29;;;;;;;30.88;4.93;;;;;;;;;;6219006;23;20020;-72
2022/10/29 03:15:55;;;;;;;96.10;5.93;;;;;;;;;;6219337;23;20016;-71
2022/10/29 03:18:21;;;;;;;17.75;4.88;;;;;;;;;;6218961;23;20017;-71
2022/10/29 03:20:47;;;;;;;57.63;5.43;;;;;;;;;;6194316;23;20099;-72
2022/10/29 03:23:13;;;;;;;11.73;5.18;;;;;;;;;;6219116;23;20019;-71
2022/10/29 03:25:39;;;;;;;9.88;4.85;;;;;;;;;;6219756;23;20059;-71
2022/10/29 03:28:05;;;;;;;7.07;4.70;;;;;;;;;;6219912;23;20066;-72
2022/10/29 03:30:31;;;;;;;6.85;4.70;;;;;;;;;;6220042;23;20012;-71
2022/10/29 03:32:57;;;;;;;13.57;4.30;;;;;;;;;;6219722;23;20019;-71
2022/10/29 03:35:24;;;;;;;6.88;4.72;;;;;;;;;;6218872;23;20012;-71
2022/10/29 03:37:50;;;;;;;25.27;5.00;;;;;;;;;;6219123;23;20012;-71
2022/10/29 03:40:17;;;;;;;57.10;5.43;;;;;;;;;;6218822;23;20446;-71
2022/10/29 03:42:43;;;;;;;20.25;5.75;;;;;;;;;;6218937;23;20015;-72
2022/10/29 03:45:09;;;;;;;22.42;5.57;;;;;;;;;;6193909;23;20020;-72
2022/10/29 03:47:35;;;;;;;53.47;5.35;;;;;;;;;;6218922;23;20020;-71
2022/10/29 03:50:01;;;;;;;9.90;4.72;;;;;;;;;;6218873;23;20391;-71
2022/10/29 03:52:28;;;;;;;11.40;4.97;;;;;;;;;;6218644;23;20034;-71
2022/10/29 03:54:54;;;;;;;10.27;5.30;;;;;;;;;;6218582;23;20031;-71
2022/10/29 03:57:20;;;;;;;16.83;5.68;;;;;;;;;;6193689;23;20012;-71
2022/10/29 03:59:47;;;;;;;23.30;5.57;;;;;;;;;;6218780;23;20087;-72
2022/10/29 04:02:13;;;;;;;16.50;5.40;;;;;;;;;;6218773;23;20312;-71
2022/10/29 04:04:39;;;;;;;8.57;5.60;;;;;;;;;;6245416;23;20103;-71
2022/10/29 04:07:05;;;;;;;14.65;5.65;;;;;;;;;;6218669;23;20016;-71
2022/10/29 04:09:31;;;;;;;43.03;5.95;;;;;;;;;;6218561;23;20016;-71
2022/10/29 04:11:57;;;;;;;13.02;5.50;;;;;;;;;;6218596;23;20097;-71
2022/10/29 04:14:23;;;;;;;24.17;5.35;;;;;;;;;;6218555;23;20044;-71
2022/10/29 04:16:49;;;;;;;33.08;5.70;;;;;;;;;;6218608;23;20016;-71
2022/10/29 04:19:15;;;;;;;17.33;5.25;;;;;;;;;;6218508;23;20029;-71
2022/10/29 04:21:41;;;;;;;10.68;5.22;;;;;;;;;;6218777;23;20013;-71
2022/10/29 04:24:08;;;;;;;13.52;4.90;;;;;;;;;;6218559;23;20016;-71
2022/10/29 04:26:34;;;;;;;9.05;5.15;;;;;;;;;;6218436;23;20061;-71
2022/10/29 04:29:00;;;;;;;19.95;5.70;;;;;;;;;;6218325;23;20023;-71
2022/10/29 04:31:26;;;;;;;46.83;5.93;;;;;;;;;;6218523;23;20018;-71
2022/10/29 04:33:52;;;;;;;11.90;5.05;;;;;;;;;;6218289;23;20070;-71
2022/10/29 04:36:18;;;;;;;41.35;5.45;;;;;;;;;;6218394;23;20082;-71
2022/10/29 04:38:44;;;;;;;39.85;4.95;;;;;;;;;;6218455;23;20012;-71
2022/10/29 04:41:11;;;;;;;7.72;5.00;;;;;;;;;;6218611;23;20020;-72
2022/10/29 04:43:37;;;;;;;47.97;5.50;;;;;;;;;;6245670;23;20323;-71
2022/10/29 04:46:03;;;;;;;50.22;5.50;;;;;;;;;;6218699;23;20187;-71
2022/10/29 04:48:29;;;;;;;43.17;5.40;;;;;;;;;;6193395;23;20031;-71
2022/10/29 04:50:55;;;;;;;13.07;4.50;;;;;;;;;;6219254;23;20034;-71
2022/10/29 04:53:21;;;;;;;18.13;5.28;;;;;;;;;;6220345;23;20091;-71
2022/10/29 04:55:47;;;;;;;10.82;5.22;;;;;;;;;;6220277;23;20074;-71
2022/10/29 04:58:15;;;;;;;11.60;5.60;;;;;;;;;;6195112;23;20434;-71
2022/10/29 05:00:41;;;;;;;49.70;5.90;;;;;;;;;;6220153;23;20015;-71
2022/10/29 05:03:07;;;;;;;10.65;5.40;;;;;;;;;;6220233;23;20016;-71
2022/10/29 05:05:33;;;;;;;37.83;6.07;;;;;;;;;;6245413;23;20020;-71
2022/10/29 05:08:00;;;;;;;20.63;6.07;;;;;;;;;;6220006;23;20027;-71
2022/10/29 05:10:27;;;;;;;14.07;5.60;;;;;;;;;;6220111;23;20018;-71
2022/10/29 05:12:58;;;;;;;17.35;5.95;;;;;;;;;;6220145;23;20020;-71
2022/10/29 05:15:24;;;;;;;14.70;6.45;;;;;;;;;;6219893;23;20405;-70
2022/10/29 05:17:50;;;;;;;10.45;6.45;;;;;;;;;;6220083;23;20008;-71
2022/10/29 05:20:16;;;;;;;19.10;6.72;;;;;;;;;;6220030;23;20016;-72
2022/10/29 05:22:42;;;;;;;10.60;6.22;;;;;;;;;;6219762;23;20320;-71
2022/10/29 05:25:08;;;;;;;9.45;6.22;;;;;;;;;;6220094;23;20048;-71
2022/10/29 05:27:34;;;;;;;23.50;6.10;;;;;;;;;;6220437;23;20012;-71
2022/10/29 05:30:00;;;;;;;22.75;6.25;;;;;;;;;;6220567;23;20087;-71
2022/10/29 05:32:28;;;;;;;21.45;6.15;;;;;;;;;;6220619;23;20016;-71
2022/10/29 05:34:54;;;;;;;44.88;5.85;;;;;;;;;;6220208;23;20016;-71
2022/10/29 05:37:20;;;;;;;12.10;6.80;;;;;;;;;;6194451;23;20016;-71
2022/10/29 05:39:46;;;;;;;29.55;6.22;;;;;;;;;;6220166;23;20347;-71
2022/10/29 05:42:12;;;;;;;35.80;5.80;;;;;;;;;;6220287;23;20014;-71
2022/10/29 05:44:38;;;;;;;21.42;5.90;;;;;;;;;;6220101;23;20016;-71
2022/10/29 05:47:05;;;;;;;10.00;6.25;;;;;;;;;;6220396;23;20090;-71
2022/10/29 05:49:31;;;;;;;35.72;6.28;;;;;;;;;;6220361;23;20385;-71
2022/10/29 05:51:57;;;;;;;14.40;5.60;;;;;;;;;;6219914;23;20085;-71
2022/10/29 05:54:24;;;;;;;10.30;6.18;;;;;;;;;;6220250;23;20072;-71
2022/10/29 05:56:50;;;;;;;87.82;7.30;;;;;;;;;;6247117;23;20016;-71
2022/10/29 05:59:16;;;;;;;25.98;5.95;;;;;;;;;;6220052;23;20016;-71
2022/10/29 06:01:42;;;;;;;19.10;6.38;;;;;;;;;;6219652;23;20116;-71
2022/10/29 06:04:08;;;;;;;26.90;6.30;;;;;;;;;;6219782;23;20012;-71
2022/10/29 06:06:34;;;;;;;33.97;6.72;;;;;;;;;;6219980;23;20016;-71
2022/10/29 06:09:00;;;;;;;28.40;7.35;;;;;;;;;;6219897;23;20044;-71
2022/10/29 06:11:26;;;;;;;23.30;7.00;;;;;;;;;;6220044;23;20039;-71
2022/10/29 06:13:56;;;;;;;17.55;6.10;;;;;;;;;;6219834;23;20076;-70
2022/10/29 06:16:22;;;;;;;20.55;6.78;;;;;;;;;;6219747;23;20107;-70
2022/10/29 06:18:48;;;;;;;25.17;6.75;;;;;;;;;;6220405;23;20020;-70
2022/10/29 06:21:14;;;;;;;20.80;6.45;;;;;;;;;;6219876;23;20342;-70
2022/10/29 06:23:40;;;;;;;12.45;6.32;;;;;;;;;;6219711;23;20465;-70
2022/10/29 06:26:06;;;;;;;14.35;6.50;;;;;;;;;;6219688;23;20095;-70
2022/10/29 06:28:33;;;;;;;10.65;6.55;;;;;;;;;;6219691;23;20020;-69
2022/10/29 06:30:59;;;;;;;14.02;6.03;;;;;;;;;;6219520;23;20075;-70
2022/10/29 06:33:25;;;;;;;21.60;6.22;;;;;;;;;;6220104;23;20020;-70
2022/10/29 06:35:51;;;;;;;8.05;5.88;;;;;;;;;;6194734;23;20083;-70
2022/10/29 06:38:17;;;;;;;22.60;6.53;;;;;;;;;;6219631;23;20016;-70
2022/10/29 06:40:51;;;;;;;13.93;6.22;;;;;;;;;;6219563;23;20008;-70
2022/10/29 06:43:17;;;;;;;15.18;5.57;;;;;;;;;;6219315;23;20008;-70
2022/10/29 06:45:43;;;;;;;25.08;6.13;;;;;;;;;;6219297;23;20134;-70
2022/10/29 06:48:09;;;;;;;18.17;6.20;;;;;;;;;;6217594;23;20012;-70
2022/10/29 06:50:35;;;;;;;23.70;6.30;;;;;;;;;;6194378;23;20012;-69
2022/10/29 06:53:02;;;;;;;65.47;6.50;;;;;;;;;;6219236;23;20071;-71
2022/10/29 06:55:33;;;;;;;16.05;6.38;;;;;;;;;;6218955;23;20020;-71
2022/10/29 06:58:00;;;;;;;51.70;6.32;;;;;;;;;;6219155;23;20012;-72
2022/10/29 07:00:30;;;;;;;81.70;7.05;;;;;;;;;;6218960;23;20012;-71
2022/10/29 07:03:00;;;;;;;37.53;7.15;;;;;;;;;;6219406;23;20012;-72
2022/10/29 07:05:26;;;;;;;24.52;6.47;;;;;;;;;;6219029;23;20012;-71
2022/10/29 07:07:56;;;;;;;31.50;7.68;;;;;;;;;;6219273;22;20023;-71
2022/10/29 07:10:22;;;;;;;25.17;8.02;;;;;;;;;;6218284;23;20031;-71
2022/10/29 07:12:48;;;;;;;28.70;8.77;;;;;;;;;;6219238;23;20012;-71
2022/10/29 07:15:14;;;;;;;23.40;7.55;;;;;;;;;;6245737;23;20445;-71
2022/10/29 07:17:40;;;;;;;13.75;7.75;;;;;;;;;;6219097;23;20023;-71
2022/10/29 07:20:07;;;;;;;14.93;7.88;;;;;;;;;;6218858;23;20014;-71
2022/10/29 07:22:34;;;;;;;20.27;7.80;;;;;;;;;;6219117;23;20012;-71
2022/10/29 07:25:00;;;;;;;26.92;7.80;;;;;;;;;;6219187;23;20016;-71
2022/10/29 07:27:27;;;;;;;26.55;8.30;;;;;;;;;;6245571;23;20027;-71
2022/10/29 07:29:53;;;;;;;55.05;7.47;;;;;;;;;;6219165;23;20095;-71
2022/10/29 07:32:19;;;;;;;25.95;7.72;;;;;;;;;;6219259;23;20016;-71
2022/10/29 07:34:45;;;;;;;27.58;6.95;;;;;;;;;;6245741;23;20020;-71
2022/10/29 07:37:11;;;;;;;20.83;7.60;;;;;;;;;;6218861;23;20016;-71
2022/10/29 07:39:37;;;;;;;22.55;7.68;;;;;;;;;;6219040;23;20442;-71
2022/10/29 07:42:04;;;;;;;32.35;7.85;;;;;;;;;;6218787;23;20016;-70
2022/10/29 07:44:30;;;;;;;14.25;7.03;;;;;;;;;;6218843;23;20024;-70
2022/10/29 07:46:56;;;;;;;18.40;7.05;;;;;;;;;;6218599;23;20016;-71
2022/10/29 07:49:22;;;;;;;40.47;8.02;;;;;;;;;;6218930;23;20015;-70
2022/10/29 07:51:48;;;;;;;49.83;7.80;;;;;;;;;;6218370;23;20066;-71
2022/10/29 07:54:14;;;;;;;54.47;8.23;;;;;;;;;;6245634;23;20027;-70
2022/10/29 07:56:40;;;;;;;39.83;7.97;;;;;;;;;;6245539;23;20050;-70
2022/10/29 07:59:08;;;;;;;46.72;8.13;;;;;;;;;;6245801;23;20074;-70
2022/10/29 08:01:34;;;;;;;90.30;8.75;;;;;;;;;;6245704;23;20439;-71
2022/10/29 08:04:00;;;;;;;42.63;8.13;;;;;;;;;;6218435;23;20023;-71
2022/10/29 08:06:26;;;;;;;57.15;9.07;;;;;;;;;;6219077;23;20020;-70
2022/10/29 08:08:52;;;;;;;58.40;8.80;;;;;;;;;;6219025;23;20067;-70
2022/10/29 08:11:18;;;;;;;22.88;8.00;;;;;;;;;;6219033;23;20023;-70
2022/10/29 08:13:44;;;;;;;34.65;9.02;;;;;;;;;;6245746;23;20020;-70
2022/10/29 08:16:10;;;;;;;37.53;9.73;;;;;;;;;;6218997;23;20009;-70
2022/10/29 08:18:36;;;;;;;33.75;9.52;;;;;;;;;;6218851;23;20043;-70
2022/10/29 08:21:03;;;;;;;38.63;10.10;;;;;;;;;;6194155;23;20012;-70
2022/10/29 08:23:29;;;;;;;33.60;10.43;;;;;;;;;;6245440;23;20051;-70
2022/10/29 08:25:57;;;;;;;36.42;10.52;;;;;;;;;;6217867;23;20012;-70
2022/10/29 08:28:23;;;;;;;30.67;11.30;;;;;;;;;;6218976;23;20016;-70
2022/10/29 08:30:49;;;;;;;30.95;11.10;;;;;;;;;;6219879;23;20478;-70
2022/10/29 08:33:16;;;;;;;33.30;11.00;;;;;;;;;;6220021;23;20043;-70
2022/10/29 08:35:42;;;;;;;32.85;12.55;;;;;;;;;;6220098;23;20446;-70
2022/10/29 08:38:08;;;;;;;35.42;13.23;;;;;;;;;;6220311;23;20023;-70
2022/10/29 08:40:49;;;;;;;37.35;14.05;;;;;;;;;;6220356;23;20031;-70
2022/10/29 08:43:31;;;;;;;42.55;15.07;;;;;;;;;;6219953;23;20044;-70
2022/10/29 08:45:57;;;;;;;36.70;15.55;;;;;;;;;;6219007;23;20020;-70
2022/10/29 08:48:29;;;;;;;35.95;14.10;;;;;;;;;;6246253;23;20027;-70
2022/10/29 08:50:58;;;;;;;42.65;17.00;;;;;;;;;;6218392;23;20047;-71
2022/10/29 08:53:34;;;;;;;37.03;14.95;;;;;;;;;;6220384;23;20020;-70
2022/10/29 08:56:02;;;;;;;43.20;16.35;;;;;;;;;;6220597;23;20087;-70
2022/10/29 08:58:36;;;;;;;37.75;15.18;;;;;;;;;;6220588;23;20012;-70
2022/10/29 09:01:03;;;;;;;42.30;17.90;;;;;;;;;;6195498;23;20070;-70
2022/10/29 09:03:29;;;;;;;39.05;17.33;;;;;;;;;;6220529;23;20095;-70
2022/10/29 09:05:55;;;;;;;45.15;17.30;;;;;;;;;;6220572;23;20008;-70
2022/10/29 09:08:38;;;;;;;40.70;16.52;;;;;;;;;;6220555;23;20016;-70
2022/10/29 09:11:27;;;;;;;42.65;17.70;;;14.20;99.90;;;;;;6218864;23;20533;-70
2022/10/29 09:13:56;;;;;;;35.53;17.20;;;;;;;;;;6165142;23;20012;-71
2022/10/29 09:16:44;;;;;;;45.75;17.58;;;;;;;;;;6220482;23;20040;-71
2022/10/29 09:19:16;;;;;;;35.38;16.98;;;;;;;;;;6218353;23;20066;-70
2022/10/29 09:21:54;;;;;;;45.42;19.77;;;;;;;;;;6220379;23;20023;-70
2022/10/29 09:24:37;;;;;;;42.58;16.73;;;;;;;;;;6218370;23;20016;-70
2022/10/29 09:27:24;;;;;;;31.80;14.50;;;;;;;;;;6217836;23;20760;-70
2022/10/29 09:29:53;;;;;;;43.58;17.45;;;;;;;;;;6217826;23;20087;-70
2022/10/29 09:32:35;;;;;;;44.72;18.15;;;;;;;;;;6217843;23;20073;-71
2022/10/29 09:35:03;;;;;;;32.45;15.48;;;;;;;;;;6217505;23;20027;-71
2022/10/29 09:37:30;;;;;;;40.67;17.20;;;;;;;;;;6217670;23;20091;-70
2022/10/29 09:39:56;;;;;;;39.78;17.50;;;;;;;;;;6217758;23;20009;-70
2022/10/29 09:42:27;;;;;;;38.67;16.98;;;;;;;;;;6217741;23;20023;-70
2022/10/29 09:44:57;;;;;;;42.90;17.60;;;;;;;;;;6219985;23;20095;-71
2022/10/29 09:47:23;;;;;;;38.22;17.27;;;;;;;;;;6220189;23;20023;-70
2022/10/29 09:49:58;;;;;;;39.20;17.58;;;;;;;;;;6193532;23;20066;-70
2022/10/29 09:52:27;;;;;;;36.83;15.77;;;;;;;;;;6246674;23;20023;-71
2022/10/29 09:54:53;;;;;;;38.88;17.67;;;;;;;;;;6194954;23;20012;-71
2022/10/29 09:57:21;;;;;;;37.53;16.67;;;;;;;;;;6220131;23;20012;-71
2022/10/29 09:59:50;;;;;;;30.88;15.68;;;;;;;;;;6219960;23;20027;-71
2022/10/29 10:02:32;;;;;;;35.97;15.27;;;;;;;;;;6220002;23;20023;-71
2022/10/29 10:05:03;;;;;;;31.03;15.03;;;;;;;;;;6220069;23;20517;-71
2022/10/29 10:07:29;;;;;;;36.28;16.00;;;;;;;;;;6195067;23;20012;-71
2022/10/29 10:09:55;;;;;;;36.70;15.70;;;;;;;;;;6219862;23;20095;-71
2022/10/29 10:12:26;;;;;;;33.42;15.80;;;;;;;;;;6220131;23;20062;-71
2022/10/29 10:15:04;;;;;;;27.60;14.55;;;;;;;;;;6220070;23;20012;-71
2022/10/29 10:17:50;;;;;;;38.17;15.90;;;;;;;;;;6220011;23;20341;-71
2022/10/29 10:20:27;;;;;;;33.17;15.32;;;;;;;;;;6219262;23;20427;-71
2022/10/29 10:22:53;;;;;;;35.20;14.85;;;;;;;;;;6219884;23;20016;-71
2022/10/29 10:25:33;;;;;;;36.30;15.75;;;;;;;;;;6194974;23;20048;-71
2022/10/29 10:28:18;;;;;;;33.25;15.50;;;15.40;99.90;;;;;;6219746;23;20016;-71
2022/10/29 10:30:45;;;;;;;30.83;14.43;;;;;;;;;;6220038;23;20062;-71
2022/10/29 10:33:26;;;;;;;31.73;16.00;;;;;;;;;;6219725;23;20016;-70
2022/10/29 10:35:53;;;;;;;40.58;17.38;;;;;;;;;;6219072;23;20020;-71
2022/10/29 10:38:20;;;;;;;35.05;16.00;;;;;;;;;;6219573;23;20039;-71
2022/10/29 10:40:56;;;;;;;34.90;15.27;;;;;;;;;;6194558;23;20020;-72
2022/10/29 10:43:24;;;;;;;31.10;16.05;;;;;;;;;;6219650;23;20016;-71
2022/10/29 10:45:56;;;;;;;29.15;15.20;;;;;;;;;;6219303;23;20066;-71
2022/10/29 10:48:24;;;;;;;39.05;14.65;;;;;;;;;;6219382;23;20016;-71
2022/10/29 10:50:50;;;;;;;34.50;13.93;;;;;;;;;;6219102;23;20438;-71
2022/10/29 10:53:16;;;;;;;30.08;14.23;;;;;;;;;;6219547;23;20019;-71
2022/10/29 10:55:53;;;;;;;28.92;14.23;;;;;;;;;;6219286;23;20012;-71
2022/10/29 10:58:22;;;;;;;36.88;16.80;;;;;;;;;;6219193;23;20022;-71
2022/10/29 11:01:00;;;;;;;26.75;14.38;;;;;;;;;;6219305;23;20466;-71
2022/10/29 11:03:32;;;;;;;33.90;14.63;;;;;;;;;;6219172;23;20055;-71
2022/10/29 11:06:03;;;;;;;35.65;13.93;;;;;;;;;;6193528;23;20070;-72
2022/10/29 11:08:32;;;;;;;34.38;14.63;;;;;;;;;;6219211;23;20087;-71
2022/10/29 11:11:01;;;;;;;31.27;14.27;;;;;;;;;;6219148;23;20019;-71
2022/10/29 11:13:30;;;;;;;26.92;13.93;;;;;;;;;;6194064;23;20016;-71
2022/10/29 11:15:58;;;;;;;36.70;15.52;;;;;;;;;;6219081;23;20311;-71
2022/10/29 11:18:30;;;;;;;30.65;15.07;;;;;;;;;;6219235;23;20067;-71
2022/10/29 11:21:03;;;;;;;28.88;13.82;;;;;;;;;;6193366;23;20087;-71
2022/10/29 11:23:57;;;;;;;24.67;13.80;;;16.20;99.90;;;;;;6193558;23;20342;-71
2022/10/29 11:26:34;;;;;;;28.88;14.60;;;;;;;;;;6168661;23;20008;-71
2022/10/29 11:29:02;;;;;;;27.67;13.80;;;;;;;;;;6218918;23;20019;-71
2022/10/29 11:31:39;;;;;;;30.35;14.90;;;;;;;;;;6219136;23;20016;-71
2022/10/29 11:34:14;;;;;;;31.48;14.18;;;;;;;;;;6219000;23;20020;-71
2022/10/29 11:36:44;;;;;;;36.42;15.18;;;;;;;;;;6194011;23;20016;-72
2022/10/29 11:39:10;;;;;;;31.70;14.93;;;;;;;;;;6219082;23;20048;-71
2022/10/29 11:41:40;;;;;;;27.52;14.60;;;;;;;;;;6194188;23;20462;-71
2022/10/29 11:44:11;;;;;;;27.55;14.43;;;;;;;;;;6218996;23;20023;-72
2022/10/29 11:47:01;;;;;;;32.17;14.57;;;;;;;;;;6218810;23;20023;-72
2022/10/29 11:49:27;;;;;;;33.38;14.65;;;;;;;;;;6245758;23;20082;-72
2022/10/29 11:51:53;;;;;;;28.58;13.98;;;;;;;;;;6218549;23;20017;-72
2022/10/29 11:54:19;;;;;;;40.78;14.43;;;;;;;;;;6219024;23;20078;-71
2022/10/29 11:56:48;;;;;;;29.15;14.40;;;;;;;;;;6218947;23;20457;-71
2022/10/29 11:59:24;;;;;;;26.48;13.88;;;;;;;;;;6245970;23;20472;-71
2022/10/29 12:02:02;;;;;;;26.73;13.52;;;;;;;;;;6218272;23;20456;-71
2022/10/29 12:04:28;;;;;;;26.48;13.77;;;;;;;;;;6218570;23;20035;-72
2022/10/29 12:07:10;;;;;;;30.25;14.90;;;;;;;;;;6218963;23;20319;-72
2022/10/29 12:10:12;;;;;;;27.88;12.52;;;17.00;99.90;;;;;;6218771;23;20083;-71
2022/10/29 12:12:45;;;;;;;26.23;13.18;;;;;;;;;;6218484;23;20397;-71
2022/10/29 12:15:30;;;;;;;28.13;12.65;;;;;;;;;;6218639;23;20020;-71
2022/10/29 12:18:05;;;;;;;23.92;12.38;;;;;;;;;;6218621;23;20031;-71
2022/10/29 12:20:38;;;;;;;27.02;12.25;;;;;;;;;;6218302;23;20043;-71
2022/10/29 12:23:04;;;;;;;;;;;;;;;;;;6219114;23;20016;-71
2022/10/29 12:25:36;;;;;;;32.92;12.05;;;;;;;;;;6217478;23;20325;-71
2022/10/29 12:28:02;;;;;;;23.25;11.27;;;;;;;;;;6216362;23;20341;-71
2022/10/29 12:30:32;;;;;;;28.80;11.10;;;;;;;;;;6216204;23;20481;-70
2022/10/29 12:33:07;;;;;;;23.23;10.73;;;;;;;;;;6217375;23;20061;-71
2022/10/29 12:35:36;;;;;;;30.60;11.07;;;;;;;;;;6217075;23;20016;-71
2022/10/29 12:38:08;;;;;;;29.67;12.05;;;;;;;;;;6218716;23;20450;-71
2022/10/29 12:40:37;;;;;;;35.33;11.45;;;;;;;;;;6218604;23;20008;-71
2022/10/29 12:43:10;;;;;;;25.08;12.15;;;;;;;;;;6218906;23;20022;-71
2022/10/29 12:45:44;;;;;;;25.50;11.73;;;;;;;;;;6218782;23;20074;-71
2022/10/29 12:48:17;;;;;;;19.67;10.68;;;;;;;;;;6218755;23;20047;-71
2022/10/29 12:51:06;;;;;;;31.58;12.23;;;;;;;;;;6245795;23;20016;-71
2022/10/29 12:53:35;;;;;;;22.52;10.80;;;;;;;;;;6245597;23;20443;-71
2022/10/29 12:56:03;;;;;;;27.13;11.23;;;;;;;;;;6193020;23;20019;-71
2022/10/29 12:58:49;;;;;;;28.17;11.63;;;17.90;99.90;;;;;;6219108;23;20334;-70
2022/10/29 13:01:27;;;;;;;27.88;11.82;;;;;;;;;;6218889;23;20012;-70
2022/10/29 13:03:53;;;;;;;24.52;11.82;;;;;;;;;;6219139;23;20107;-71
2022/10/29 13:06:38;;;;;;;26.27;13.82;;;18.30;99.90;;;;;;6219116;23;20016;-71
2022/10/29 13:09:15;;;;;;;24.77;12.15;;;;;;;;;;6195438;23;20069;-70
2022/10/29 13:11:43;;;;;;;22.98;11.80;;;;;;;;;;6220494;23;20012;-70
2022/10/29 13:14:10;;;;;;;28.00;11.90;;;;;;;;;;6221410;23;20016;-71
2022/10/29 13:16:37;;;;;;;22.60;11.40;;;;;;;;;;6220625;23;20048;-71
2022/10/29 13:19:06;;;;;;;26.35;11.52;;;;;;;;;;6220451;23;20012;-71
2022/10/29 13:21:58;;;;;;;24.42;11.70;;;18.10;99.90;;;;;;6220357;23;20372;-71
2022/10/29 13:24:25;;;;;;;24.88;11.05;;;;;;;;;;6195094;23;20016;-70
2022/10/29 13:26:55;;;;;;;27.80;10.63;;;;;;;;;;6220136;23;20334;-70
2022/10/29 13:29:40;;;;;;;29.90;11.57;;;;;;;;;;6195300;23;20012;-70
2022/10/29 13:32:06;;;;;;;21.05;10.20;;;;;;;;;;6219952;23;20016;-71
2022/10/29 13:34:52;;;;;;;22.52;10.00;;;19.00;99.90;;;;;;6219781;23;20070;-70
2022/10/29 13:37:38;;;;;;;19.63;10.43;;;;;;;;;;6243949;22;20303;-71
2022/10/29 13:40:22;;;;;;;24.23;11.10;;;;;;;;;;6219826;23;20019;-71
2022/10/29 13:43:02;;;;;;;25.35;10.82;;;;;;;;;;6220006;23;20445;-71
2022/10/29 13:45:28;;;;;;;24.55;10.05;;;;;;;;;;6219756;23;20034;-71
2022/10/29 13:48:03;;;;;;;21.67;10.63;;;;;;;;;;6194894;23;20016;-70
2022/10/29 13:50:29;;;;;;;19.60;10.20;;;;;;;;;;6246552;23;20093;-71
2022/10/29 13:52:57;;;;;;;27.00;11.20;;;;;;;;;;6219847;23;20442;-71
2022/10/29 13:55:23;;;;;;;22.75;9.73;;;;;;;;;;6219703;23;20439;-71
2022/10/29 13:57:49;;;;;;;25.23;11.43;;;;;;;;;;6219791;23;20315;-71
2022/10/29 14:00:20;;;;;;;25.58;10.25;;;;;;;;;;6194681;23;20102;-70
2022/10/29 14:02:52;;;;;;;28.73;11.45;;;;;;;;;;6194620;23;20019;-71
2022/10/29 14:05:20;;;;;;;22.95;10.43;;;;;;;;;;6219705;23;20098;-71
2022/10/29 14:08:14;;;;;;;24.60;10.70;;;18.50;99.90;;;;;;6219795;22;20027;-71
2022/10/29 14:10:40;;;;;;;27.02;10.98;;;;;;;;;;6194329;23;20020;-71
2022/10/29 14:13:18;;;;;;;30.42;11.52;;;;;;;;;;6219712;23;20016;-71
2022/10/29 14:16:09;;;;;;;28.55;12.88;;;;;;;;;;6219363;23;20016;-70
2022/10/29 14:18:36;;;;;;;24.77;10.68;;;;;;;;;;6219256;23;20013;-71
2022/10/29 14:21:03;;;;;;;24.75;13.50;;;;;;;;;;6219273;23;20016;-71
2022/10/29 14:23:30;;;;;;;29.10;12.25;;;;;;;;;;6194091;23;20012;-71
2022/10/29 14:25:58;;;;;;;24.60;11.85;;;;;;;;;;6246036;23;20017;-71
2022/10/29 14:28:29;;;;;;;28.05;11.27;;;;;;;;;;6218178;23;20020;-71
2022/10/29 14:31:14;;;;;;;29.58;11.73;;;;;;;;;;6219126;23;20012;-71
2022/10/29 14:33:43;;;;;;;25.23;12.23;;;;;;;;;;6246156;23;20016;-71
2022/10/29 14:36:16;;;;;;;22.05;11.60;;;;;;;;;;6219150;23;20044;-70